Time;durP1;ratioP1;P1;durP2;ratioP2;P2;SDS_P1;SDS_P2;PMS_P1;PMS_P2;Temp;Humidity;BMP_temperature;BMP_pressure;BME280_temperature;BME280_humidity;BME280_pressure;Samples;Min_cycle;Max_cycle;Signal;HPM_P1;HPM_P2
2022/11/19 00:02:17;;;;;;;163.20;43.93;;;;;;;11.85;100.00;98382.47;5094027;28;20274;-71
2022/11/19 00:04:44;;;;;;;162.37;46.37;;;;;;;11.86;100.00;98387.56;5093222;28;20313;-71
2022/11/19 00:07:11;;;;;;;205.90;46.20;;;;;;;11.80;100.00;98377.84;5094985;28;20200;-71
2022/11/19 00:09:37;;;;;;;175.13;45.80;;;;;;;11.76;100.00;98386.53;5093582;28;20222;-71
2022/11/19 00:14:49;;;;;;;139.57;40.43;;;;;;;11.38;100.00;98391.38;5073496;28;20650;-70
2022/11/19 00:17:17;;;;;;;136.90;40.17;;;;;;;11.37;100.00;98398.56;5073242;28;20594;-71
2022/11/19 00:19:43;;;;;;;176.23;40.87;;;;;;;11.41;100.00;98398.91;5073673;28;20189;-71
2022/11/19 00:22:10;;;;;;;141.93;39.87;;;;;;;11.43;100.00;98399.50;5073419;28;20220;-71
2022/11/19 00:24:38;;;;;;;133.30;37.43;;;;;;;11.50;100.00;98395.72;5073065;28;20247;-71
2022/11/19 00:27:05;;;;;;;123.40;37.27;;;;;;;11.54;100.00;98402.19;5073430;28;20200;-71
2022/11/19 00:29:31;;;;;;;127.73;37.97;;;;;;;11.55;100.00;98411.78;5078277;28;20249;-71
2022/11/19 00:31:58;;;;;;;125.93;38.13;;;;;;;11.54;100.00;98401.38;5093781;28;20685;-71
2022/11/19 00:34:26;;;;;;;134.27;39.13;;;;;;;11.50;100.00;98398.38;5093920;28;20241;-71
2022/11/19 00:36:53;;;;;;;122.23;36.80;;;;;;;11.47;100.00;98406.78;5090657;28;20196;-71
2022/11/19 00:39:20;;;;;;;147.13;37.80;;;;;;;11.52;100.00;98414.09;5073093;28;20255;-71
2022/11/19 00:41:47;;;;;;;123.63;35.93;;;;;;;11.51;100.00;98434.56;5072935;28;20666;-71
2022/11/19 00:44:13;;;;;;;137.73;37.30;;;;;;;11.47;100.00;98436.03;5073049;28;20197;-71
2022/11/19 00:46:40;;;;;;;114.27;35.93;;;;;;;11.46;100.00;98433.59;5072937;28;20258;-71
2022/11/19 00:49:07;;;;;;;125.00;35.63;;;;;;;11.61;100.00;98442.81;5073362;28;20252;-71
2022/11/19 00:51:35;;;;;;;102.20;33.20;;;;;;;11.66;100.00;98442.13;5075199;28;20274;-71
2022/11/19 00:54:02;;;;;;;111.43;34.97;;;;;;;11.70;100.00;98444.13;5093103;28;20229;-70
2022/11/19 00:56:28;;;;;;;114.93;35.20;;;;;;;11.71;100.00;98464.34;5092646;28;20238;-69
2022/11/19 00:58:55;;;;;;;107.00;33.23;;;;;;;11.65;100.00;98438.69;5093055;28;20274;-69
2022/11/19 01:01:24;;;;;;;112.50;34.27;;;;;;;11.70;100.00;98446.78;5092439;28;20216;-71
2022/11/19 01:03:52;;;;;;;104.60;34.33;;;;;;;11.76;100.00;98445.84;5093279;28;20188;-70
2022/11/19 01:06:21;;;;;;;106.07;34.50;;;;;;;11.62;100.00;98448.94;5092405;28;20661;-70
2022/11/19 01:08:51;;;;;;;91.33;32.50;;;;;;;11.69;100.00;98460.28;5092887;28;20195;-70
2022/11/19 01:11:19;;;;;;;88.97;33.70;;;;;;;11.59;100.00;98450.19;5092451;28;20663;-70
2022/11/19 01:13:47;;;;;;;85.43;32.87;;;;;;;11.67;100.00;98460.53;5080232;28;20189;-70
2022/11/19 01:16:15;;;;;;;73.20;31.57;;;;;;;11.70;100.00;98468.06;5071671;28;20251;-69
2022/11/19 01:18:45;;;;;;;73.40;30.03;;;;;;;11.74;100.00;98458.59;5072229;28;20231;-69
2022/11/19 01:21:13;;;;;;;66.53;27.77;;;;;;;11.85;100.00;98473.75;5071967;28;20774;-69
2022/11/19 01:23:41;;;;;;;72.57;30.50;;;;;;;11.88;100.00;98494.56;5072959;28;20192;-69
2022/11/19 01:26:10;;;;;;;80.00;29.73;;;;;;;11.82;100.00;98498.16;5072513;28;20557;-69
2022/11/19 01:28:37;;;;;;;74.53;30.13;;;;;;;11.89;100.00;98506.84;5072613;28;20614;-69
2022/11/19 01:31:08;;;;;;;77.63;30.33;;;;;;;11.92;100.00;98487.75;5089875;28;20197;-69
2022/11/19 01:33:35;;;;;;;71.27;28.83;;;;;;;11.89;100.00;98498.06;5092839;28;20643;-69
2022/11/19 01:36:04;;;;;;;72.00;29.20;;;;;;;11.87;100.00;98511.59;5092370;28;20285;-69
2022/11/19 01:38:31;;;;;;;82.73;30.10;;;;;;;11.81;100.00;98525.00;5092436;28;20191;-69
2022/11/19 01:40:58;;;;;;;76.27;29.40;;;;;;;11.73;100.00;98539.44;5092300;28;20216;-70
2022/11/19 01:43:45;;;;;;;63.47;29.30;;;;;;;11.70;100.00;98541.72;5092031;28;20225;-70
2022/11/19 01:46:13;;;;;;;66.97;28.53;;;;;;;11.76;100.00;98552.25;5091995;28;20716;-71
2022/11/19 01:48:45;;;;;;;67.23;29.50;;;;;;;11.81;100.00;98544.44;5092303;28;20240;-71
2022/11/19 01:51:16;;;;;;;66.53;29.27;;;;;;;11.81;100.00;98543.59;5092198;28;20615;-71
2022/11/19 01:53:45;;;;;;;66.00;28.70;;;;;;;11.88;100.00;98549.66;5073565;28;20188;-71
2022/11/19 01:56:13;;;;;;;61.13;28.07;;;;;;;11.83;100.00;98566.28;5071980;28;20279;-69
2022/11/19 01:58:44;;;;;;;59.07;27.57;;;;;;;11.82;100.00;98562.00;5073259;28;20602;-70
2022/11/19 02:01:12;;;;;;;60.93;28.93;;;;;;;11.78;100.00;98574.16;5072430;28;20363;-69
2022/11/19 02:03:39;;;;;;;57.00;28.83;;;;;;;11.81;100.00;98571.03;5071900;28;20672;-69
2022/11/19 02:06:07;;;;;;;58.63;28.60;;;;;;;11.78;100.00;98586.63;5071577;28;20280;-70
2022/11/19 02:08:40;;;;;;;59.73;29.50;;;;;;;11.61;100.00;98581.13;5071651;28;20251;-70
2022/11/19 02:11:28;;;;;;;60.57;28.80;;;;;;;11.51;100.00;98583.47;5071628;28;20644;-70
2022/11/19 02:14:07;;;;;;;66.00;29.37;;;;;;;11.43;100.00;98589.09;5085254;28;20188;-70
2022/11/19 02:16:48;;;;;;;63.00;29.60;;;;;;;11.47;100.00;98584.94;5092095;28;20184;-70
2022/11/19 02:19:36;;;;;;;64.53;30.83;;;;;;;11.56;100.00;98580.94;5092634;28;20189;-70
2022/11/19 02:22:17;;;;;;;64.73;28.70;;;;;;;11.60;100.00;98574.16;5091483;28;20238;-69
2022/11/19 02:24:51;;;;;;;58.47;29.23;;;;;;;11.73;100.00;98567.88;5092161;28;20258;-68
2022/11/19 02:27:35;;;;;;;56.87;28.33;;;;;;;11.86;100.00;98568.50;5092269;28;20184;-68
2022/11/19 02:30:11;;;;;;;58.50;28.83;;;;;;;11.94;100.00;98560.19;5086193;28;20207;-68
2022/11/19 02:32:49;;;;;;;59.37;28.23;;;;;;;12.01;100.00;98557.44;5075278;28;20234;-68
2022/11/19 02:35:23;;;;;;;53.67;27.73;;;;;;;12.03;100.00;98564.16;5075227;28;20234;-68
2022/11/19 02:37:58;;;;;;;55.00;27.97;;;;;;;12.00;100.00;98555.81;5075129;28;20184;-68
2022/11/19 02:40:30;;;;;;;49.97;27.17;;;;;;;11.99;100.00;98552.34;5076003;28;20186;-69
2022/11/19 02:43:08;;;;;;;50.93;28.30;;;;;;;12.00;100.00;98553.16;5074918;28;20271;-69
2022/11/19 02:45:39;;;;;;;46.60;26.43;;;;;;;11.95;100.00;98537.88;5076254;28;20200;-69
2022/11/19 02:48:11;;;;;;;48.93;27.20;;;;;;;12.06;100.00;98555.72;5075568;28;20263;-70
2022/11/19 02:50:42;;;;;;;45.80;25.37;;;;;;;12.09;100.00;98552.56;5075428;28;20263;-69
2022/11/19 02:53:09;;;;;;;45.23;24.83;;;;;;;12.09;100.00;98568.56;5090549;28;20226;-70
2022/11/19 02:55:37;;;;;;;41.73;24.53;;;;;;;12.11;100.00;98571.00;5095154;28;20733;-70
2022/11/19 02:58:08;;;;;;;42.10;24.27;;;;;;;12.12;100.00;98557.47;5094937;28;20248;-70
2022/11/19 03:06:15;;;;;;;39.43;22.93;;;;;;;12.18;100.00;98571.72;5095287;28;20318;-70
2022/11/19 03:08:42;;;;;;;33.43;21.30;;;;;;;12.23;100.00;98572.66;5094947;28;20187;-70
2022/11/19 03:11:19;;;;;;;35.30;21.10;;;;;;;12.24;100.00;98574.25;5094709;28;20620;-70
2022/11/19 03:16:41;;;;;;;29.53;20.80;;;;;;;12.32;100.00;98568.59;5074678;28;20198;-70
2022/11/19 03:19:14;;;;;;;30.57;20.77;;;;;;;12.30;100.00;98570.72;5075652;28;20251;-71
2022/11/19 03:21:48;;;;;;;30.70;19.53;;;;;;;12.36;100.00;98584.94;5077671;28;20267;-71
2022/11/19 03:24:20;;;;;;;27.07;19.90;;;;;;;12.36;100.00;98615.03;5096015;28;20591;-71
2022/11/19 03:26:51;;;;;;;32.03;21.97;;;;;;;12.34;100.00;98614.47;5094528;28;20238;-71
2022/11/19 03:29:18;;;;;;;33.23;22.20;;;;;;;12.34;100.00;98611.81;5091813;28;20258;-71
2022/11/19 03:31:52;;;;;;;30.47;20.93;;;;;;;12.30;100.00;98607.97;5074132;28;20661;-70
2022/11/19 03:34:23;;;;;;;32.13;21.17;;;;;;;12.42;100.00;98627.44;5075062;28;20237;-70
2022/11/19 03:36:53;;;;;;;32.37;21.17;;;;;;;12.48;100.00;98631.03;5074341;28;20192;-70
2022/11/19 03:39:22;;;;;;;24.97;19.23;;;;;;;12.54;100.00;98625.59;5073220;28;20250;-70
2022/11/19 03:41:51;;;;;;;29.53;20.73;;;;;;;12.61;100.00;98633.47;5091017;28;20217;-70
2022/11/19 03:44:22;;;;;;;25.80;18.80;;;;;;;12.64;100.00;98641.03;5095133;28;20251;-69
2022/11/19 03:46:55;;;;;;;33.13;20.17;;;;;;;12.66;100.00;98639.75;5094457;28;20247;-69
2022/11/19 03:49:30;;;;;;;25.50;18.97;;;;;;;12.54;100.00;98646.91;5095345;28;20251;-69
2022/11/19 03:52:02;;;;;;;21.13;16.00;;;;;;;12.60;100.00;98650.50;5088579;28;20189;-69
2022/11/19 03:54:29;;;;;;;27.47;19.93;;;;;;;12.59;100.00;98668.38;5074749;28;20195;-70
2022/11/19 03:56:58;;;;;;;30.73;21.07;;;;;;;12.64;100.00;98673.81;5073627;28;20202;-70
2022/11/19 03:59:26;;;;;;;30.23;18.37;;;;;;;12.57;100.00;98670.44;5073736;28;20288;-70
2022/11/19 04:01:58;;;;;;;26.63;18.17;;;;;;;12.59;100.00;98675.53;5074032;28;20222;-70
2022/11/19 04:04:36;;;;;;;26.03;18.37;;;;;;;12.56;100.00;98676.00;5074518;28;20189;-70
2022/11/19 04:07:05;;;;;;;32.80;20.90;;;;;;;12.52;100.00;98688.13;5073470;28;20248;-70
2022/11/19 04:09:32;;;;;;;35.97;20.70;;;;;;;12.55;100.00;98685.84;5073494;28;20428;-70
2022/11/19 04:11:59;;;;;;;41.50;23.20;;;;;;;12.58;100.00;98677.38;5073194;28;20295;-70
2022/11/19 04:14:26;;;;;;;47.67;28.67;;;;;;;12.45;100.00;98669.59;5091020;28;20190;-70
2022/11/19 04:16:54;;;;;;;46.47;25.73;;;;;;;12.51;100.00;98671.38;5093664;28;20228;-70
2022/11/19 04:19:20;;;;;;;45.40;25.43;;;;;;;12.50;100.00;98683.03;5093584;28;20222;-69
2022/11/19 04:21:47;;;;;;;49.73;24.87;;;;;;;12.47;100.00;98702.16;5093756;28;20228;-69
2022/11/19 04:24:14;;;;;;;49.80;28.60;;;;;;;12.40;100.00;98697.94;5093611;28;20254;-71
2022/11/19 04:26:41;;;;;;;45.57;26.20;;;;;;;12.34;100.00;98699.69;5093339;28;20250;-70
2022/11/19 04:29:08;;;;;;;48.23;27.07;;;;;;;12.39;100.00;98702.47;5091668;28;20228;-70
2022/11/19 04:31:34;;;;;;;52.60;28.73;;;;;;;12.45;100.00;98709.53;5073818;28;20199;-69
2022/11/19 04:34:02;;;;;;;49.57;24.97;;;;;;;12.45;100.00;98714.09;5073190;28;20193;-68
2022/11/19 04:36:29;;;;;;;50.37;26.67;;;;;;;12.27;100.00;98693.63;5073296;28;20198;-68
2022/11/19 04:38:56;;;;;;;46.50;25.20;;;;;;;12.46;100.00;98718.34;5073051;28;20240;-68
2022/11/19 04:41:23;;;;;;;46.93;26.23;;;;;;;12.37;100.00;98720.50;5072752;28;20202;-68
2022/11/19 04:43:49;;;;;;;51.50;25.63;;;;;;;12.33;100.00;98730.00;5072666;28;20578;-68
2022/11/19 04:46:16;;;;;;;45.33;25.40;;;;;;;12.36;100.00;98734.06;5073029;28;20196;-68
2022/11/19 04:48:43;;;;;;;50.73;26.60;;;;;;;12.33;100.00;98716.69;5072995;28;20198;-70
2022/11/19 04:51:11;;;;;;;47.80;26.10;;;;;;;12.41;100.00;98727.00;5072719;28;20255;-69
2022/11/19 04:53:37;;;;;;;52.23;27.10;;;;;;;12.44;100.00;98731.06;5092264;28;20259;-69
2022/11/19 04:56:04;;;;;;;47.57;25.00;;;;;;;12.44;100.00;98737.22;5093365;28;20198;-69
2022/11/19 04:58:31;;;;;;;51.10;26.90;;;;;;;12.47;100.00;98746.63;5093443;28;20223;-69
2022/11/19 05:00:58;;;;;;;47.43;24.90;;;;;;;12.48;100.00;98754.38;5092762;28;20192;-72
2022/11/19 05:03:25;;;;;;;52.77;26.47;;;;;;;12.49;100.00;98745.34;5093108;28;20232;-69
2022/11/19 05:05:51;;;;;;;44.77;25.93;;;;;;;12.56;100.00;98747.91;5092951;28;20200;-70
2022/11/19 05:08:19;;;;;;;53.20;26.23;;;;;;;12.60;100.00;98752.56;5091775;28;20639;-70
2022/11/19 05:10:46;;;;;;;50.97;25.47;;;;;;;12.64;100.00;98760.91;5092907;28;20193;-70
2022/11/19 05:13:13;;;;;;;47.37;26.00;;;;;;;12.68;100.00;98770.06;5092303;28;20247;-70
2022/11/19 05:15:40;;;;;;;45.73;26.27;;;;;;;12.70;100.00;98776.81;5092717;28;20197;-70
2022/11/19 05:18:07;;;;;;;49.37;26.43;;;;;;;12.71;100.00;98770.47;5092788;28;20703;-70
2022/11/19 05:20:33;;;;;;;48.83;25.93;;;;;;;12.73;100.00;98783.53;5093270;28;20636;-70
2022/11/19 05:23:00;;;;;;;48.83;26.43;;;;;;;12.75;100.00;98790.28;5092771;28;20282;-69
2022/11/19 05:25:28;;;;;;;45.37;25.23;;;;;;;12.77;100.00;98790.03;5092614;28;20260;-69
2022/11/19 05:27:55;;;;;;;50.80;25.63;;;;;;;12.76;100.00;98793.75;5092156;28;20565;-69
2022/11/19 05:30:22;;;;;;;45.80;26.17;;;;;;;12.74;100.00;98807.28;5080518;28;20259;-69
2022/11/19 05:32:48;;;;;;;44.93;26.27;;;;;;;12.66;100.00;98804.94;5072200;28;20194;-70
2022/11/19 05:35:15;;;;;;;44.73;25.97;;;;;;;12.58;100.00;98802.59;5072861;28;20258;-70
2022/11/19 05:37:42;;;;;;;44.00;26.43;;;;;;;12.54;100.00;98809.41;5072787;28;20197;-69
2022/11/19 05:40:10;;;;;;;44.77;27.40;;;;;;;12.54;100.00;98822.72;5072440;28;20189;-69
2022/11/19 05:42:38;;;;;;;47.70;28.43;;;;;;;12.53;100.00;98826.44;5072187;28;20303;-69
2022/11/19 05:45:05;;;;;;;55.47;29.50;;;;;;;12.52;100.00;98831.97;5072099;28;20251;-69
2022/11/19 05:47:32;;;;;;;53.23;28.73;;;;;;;12.49;100.00;98838.56;5071797;28;20743;-69
2022/11/19 05:49:59;;;;;;;61.23;30.63;;;;;;;12.36;100.00;98849.38;5071643;28;20734;-69
2022/11/19 05:52:25;;;;;;;75.97;31.70;;;;;;;12.15;100.00;98847.19;5081678;28;20254;-69
2022/11/19 05:54:52;;;;;;;71.17;31.97;;;;;;;12.05;100.00;98846.84;5092436;28;20193;-69
2022/11/19 05:57:19;;;;;;;58.93;30.83;;;;;;;12.14;100.00;98856.22;5092271;28;20200;-69
2022/11/19 05:59:47;;;;;;;72.70;31.20;;;;;;;12.10;100.00;98865.66;5092181;28;20252;-69
2022/11/19 06:02:13;;;;;;;67.57;32.60;;;;;;;12.14;100.00;98874.03;5093472;28;20298;-69
2022/11/19 06:04:40;;;;;;;59.27;29.63;;;;;;;12.20;100.00;98884.59;5096355;28;20187;-69
2022/11/19 06:07:07;;;;;;;58.80;29.63;;;;;;;12.21;100.00;98896.06;5096311;28;20193;-69
2022/11/19 06:09:34;;;;;;;54.50;29.37;;;;;;;12.25;100.00;98886.59;5096187;28;20301;-69
2022/11/19 06:12:00;;;;;;;57.03;30.17;;;;;;;12.30;100.00;98902.72;5095952;28;20672;-69
2022/11/19 06:14:27;;;;;;;54.60;29.37;;;;;;;12.35;100.00;98911.69;5096058;28;20201;-72
2022/11/19 06:16:57;;;;;;;56.37;29.17;;;;;;;12.43;100.00;98906.06;5095724;28;20231;-72
2022/11/19 06:19:25;;;;;;;51.53;30.03;;;;;;;12.50;100.00;98906.00;5095812;28;20239;-69
2022/11/19 06:21:52;;;;;;;47.57;27.43;;;;;;;12.55;100.00;98906.97;5095978;28;20197;-69
2022/11/19 06:24:19;;;;;;;26.17;17.07;;;;;;;12.66;100.00;98906.19;5096112;28;20194;-66
2022/11/19 06:26:46;;;;;;;44.63;25.93;;;;;;;12.95;100.00;98904.59;5095698;28;20197;-71
2022/11/19 06:29:14;;;;;;;40.40;26.80;;;;;;;12.98;100.00;98910.31;5093190;28;20189;-70
2022/11/19 06:31:40;;;;;;;41.93;26.27;;;;;;;12.98;100.00;98918.31;5075243;28;20262;-77
2022/11/19 06:34:08;;;;;;;40.47;24.57;;;;;;;12.94;100.00;98913.66;5075037;28;20202;-74
2022/11/19 06:36:35;;;;;;;41.03;26.80;;;;;;;12.91;100.00;98919.44;5075006;28;20195;-72
2022/11/19 06:39:02;;;;;;;40.07;27.30;;;;;;;12.87;100.00;98929.69;5075880;28;20256;-72
2022/11/19 06:41:29;;;;;;;42.07;26.23;;;;;;;12.84;100.00;98930.19;5076020;28;20273;-72
2022/11/19 06:43:55;;;;;;;49.20;29.07;;;;;;;12.86;100.00;98930.75;5075048;28;20221;-72
2022/11/19 06:46:22;;;;;;;44.83;28.23;;;;;;;12.91;100.00;98946.88;5075074;28;20196;-73
2022/11/19 06:48:49;;;;;;;48.87;28.27;;;;;;;12.87;100.00;98945.69;5074732;28;20220;-73
2022/11/19 06:51:17;;;;;;;47.77;28.63;;;;;;;12.79;100.00;98943.34;5074709;28;20199;-72
2022/11/19 06:53:43;;;;;;;41.47;27.43;;;;;;;12.73;100.00;98933.56;5074897;28;20394;-72
2022/11/19 06:56:10;;;;;;;46.30;27.37;;;;;;;12.73;100.00;98940.75;5074688;28;20201;-73
2022/11/19 06:58:37;;;;;;;46.47;28.33;;;;;;;12.62;100.00;98933.53;5074729;28;20194;-73
2022/11/19 07:01:04;;;;;;;43.67;28.37;;;;;;;12.62;100.00;98934.31;5075092;28;20259;-72
2022/11/19 07:03:31;;;;;;;51.93;30.60;;;;;;;12.67;100.00;98939.00;5074784;28;20217;-73
2022/11/19 07:06:00;;;;;;;67.17;40.03;;;;;;;12.56;100.00;98948.53;5074511;28;20664;-74
2022/11/19 07:08:32;;;;;;;64.13;35.10;;;;;;;12.40;100.00;98935.78;5074612;28;20661;-73
2022/11/19 07:10:59;;;;;;;82.50;38.83;;;;;;;12.54;100.00;98949.81;5088160;28;20200;-70
2022/11/19 07:13:55;;;;;;;62.47;34.80;;;;;;;12.59;100.00;98956.09;5085382;28;20557;-71
2022/11/19 07:16:13;;;;;;;59.77;34.87;;;;;;;12.47;100.00;98941.88;5074026;28;20290;-72
2022/11/19 07:18:39;;;;;;;65.27;32.03;;;;;;;12.65;100.00;98965.03;5075261;28;20226;-71
2022/11/19 07:21:06;;;;;;;53.00;31.77;;;;;;;12.62;100.00;98963.63;5074166;28;20255;-73
2022/11/19 07:23:35;;;;;;;64.90;34.80;;;;;;;12.72;100.00;98961.28;5074221;28;20219;-72
2022/11/19 07:26:02;;;;;;;59.70;32.47;;;;;;;12.63;100.00;98962.59;5074558;28;20205;-71
2022/11/19 07:28:29;;;;;;;73.30;35.30;;;;;;;12.54;100.00;98966.56;5074425;28;20197;-71
2022/11/19 07:30:55;;;;;;;82.13;34.63;;;;;;;12.58;100.00;98962.44;5091136;28;20258;-71
2022/11/19 07:33:22;;;;;;;66.13;35.23;;;;;;;12.69;100.00;98968.88;5093848;28;20200;-70
2022/11/19 07:35:49;;;;;;;68.10;36.47;;;;;;;12.85;100.00;98957.63;5094412;28;20623;-73
2022/11/19 07:38:16;;;;;;;68.93;34.30;;;;;;;12.99;100.00;98965.25;5094233;28;20206;-71
2022/11/19 07:40:52;;;;;;;73.90;36.00;;;;;;;13.21;100.00;98969.09;5076596;28;20201;-65
2022/11/19 07:43:18;;;;;;;73.10;36.73;;;;;;;13.34;100.00;98968.09;5074182;28;20232;-68
2022/11/19 07:45:44;;;;;;;65.37;35.33;;;;;;;13.37;100.00;98983.66;5073967;28;20196;-66
2022/11/19 07:48:11;;;;;;;70.13;35.87;;;;;;;13.47;100.00;98979.41;5073701;28;20730;-65
2022/11/19 07:50:39;;;;;;;67.53;34.77;;;;;;;13.67;100.00;98984.44;5073817;28;20195;-68
2022/11/19 07:53:06;;;;;;;68.53;34.43;;;;;;;14.03;100.00;98994.97;5089250;28;20647;-68
2022/11/19 07:55:33;;;;;;;66.70;34.90;;;;;;;14.34;100.00;98992.81;5084182;28;20193;-69
2022/11/19 07:58:01;;;;;;;59.93;32.90;;;;;;;14.46;98.61;98985.63;5079040;28;20241;-71
2022/11/19 08:00:28;;;;;;;65.70;34.43;;;;;;;14.66;96.82;99012.81;5065353;28;20604;-70
2022/11/19 08:02:54;;;;;;;55.17;32.73;;;;;;;14.64;96.35;99014.09;5085297;28;20212;-70
2022/11/19 08:05:21;;;;;;;54.27;31.67;;;;;;;14.63;97.11;99007.91;5080908;28;20188;-73
2022/11/19 08:07:48;;;;;;;53.20;31.23;;;;;;;14.86;96.93;99012.44;5073306;28;20660;-76
2022/11/19 08:10:15;;;;;;;54.33;31.50;;;;;;;15.20;95.22;99009.69;5073599;28;20203;-76
2022/11/19 08:13:01;;;;;;;55.10;31.23;;;;;;;15.51;93.43;99005.75;5076727;28;20199;-77
2022/11/19 08:15:30;;;;;;;59.00;31.70;;;;;;;16.02;93.24;99015.50;5093340;28;20248;-83
2022/11/19 08:20:40;;;;;;;59.20;34.37;;;;;;;16.68;86.83;99020.88;5093282;28;20203;-78
2022/11/19 08:23:07;;;;;;;46.77;30.87;;;;;;;17.02;86.11;99025.13;5093172;28;20644;-74
2022/11/19 08:25:34;;;;;;;46.43;29.97;;;;;;;17.35;84.22;99019.63;5092652;28;20772;-73
2022/11/19 08:28:01;;;;;;;55.97;31.27;;;;;;;17.71;82.49;99018.97;5093371;28;20253;-72
2022/11/19 08:30:30;;;;;;;50.43;31.93;;;;;;;18.02;80.26;99027.09;5093464;28;20190;-73
2022/11/19 08:32:57;;;;;;;53.50;31.80;;;;;;;18.27;76.94;99050.69;5085850;28;20231;-71
2022/11/19 08:35:24;;;;;;;48.93;31.50;;;;;;;18.35;76.48;99048.41;5073465;28;20192;-70
2022/11/19 08:37:51;;;;;;;49.97;30.93;;;;;;;18.67;77.06;99051.06;5084163;28;20195;-71
2022/11/19 08:40:18;;;;;;;58.73;32.57;;;;;;;18.86;75.08;99063.00;5081417;28;20191;-71
2022/11/19 08:42:59;;;;;;;53.77;30.97;;;;;;;18.99;74.98;99065.25;5092800;28;20230;-72
2022/11/19 08:45:27;;;;;;;59.57;33.87;;;;;;;19.13;74.65;99066.41;5087996;28;20191;-68
2022/11/19 08:47:56;;;;;;;60.53;32.90;;;;;;;19.14;73.96;99065.31;5078828;28;20219;-68
2022/11/19 08:50:24;;;;;;;57.37;34.67;;;;;;;19.11;73.93;99053.19;5091325;28;20245;-65
2022/11/19 08:52:58;;;;;;;67.10;36.30;;;;;;;19.30;73.39;99065.19;5082460;28;20199;-66
2022/11/19 08:55:26;;;;;;;46.47;27.10;;;;;;;19.30;73.41;99077.81;5080102;28;20245;-67
2022/11/19 08:57:53;;;;;;;54.77;29.77;;;;;;;19.33;78.38;99063.84;5079145;28;20208;-69
2022/11/19 09:00:20;;;;;;;55.93;33.50;;;;;;;19.22;74.15;99064.81;5080714;28;20687;-68
2022/11/19 09:02:47;;;;;;;52.97;32.83;;;;;;;18.88;73.31;99068.94;5077738;28;20199;-69
2022/11/19 09:05:15;;;;;;;44.03;29.03;;;;;;;18.72;73.76;99064.53;5069955;28;20662;-69
2022/11/19 09:07:42;;;;;;;46.10;29.73;;;;;;;18.49;74.46;99070.25;5063185;28;20211;-72
2022/11/19 09:10:10;;;;;;;42.40;27.87;;;;;;;18.24;75.36;99061.94;5068617;28;20543;-71
2022/11/19 09:12:37;;;;;;;53.03;29.17;;;;;;;18.02;76.67;99058.53;5068322;28;20207;-72
2022/11/19 09:15:04;;;;;;;41.67;28.93;;;;;;;17.83;78.12;99051.88;5079973;28;20195;-69
2022/11/19 09:17:31;;;;;;;45.27;28.33;;;;;;;17.95;78.76;99052.53;5081175;28;20295;-69
2022/11/19 09:19:58;;;;;;;42.40;26.27;;;;;;;18.29;79.77;99053.97;5080273;28;20195;-66
2022/11/19 09:22:26;;;;;;;44.53;27.20;;;;;;;18.42;78.67;99057.03;5091084;28;20256;-70
2022/11/19 09:24:53;;;;;;;36.70;25.40;;;;;;;18.57;77.32;99045.56;5082214;28;20222;-69
2022/11/19 09:27:20;;;;;;;31.43;23.27;;;;;;;18.90;75.72;99039.88;5082347;28;20238;-70
2022/11/19 09:29:46;;;;;;;27.80;21.53;;;;;;;18.93;73.98;99050.13;5080842;28;20220;-68
2022/11/19 09:32:13;;;;;;;24.97;21.00;;;;;;;19.01;74.30;99041.56;5081152;28;20253;-71
2022/11/19 09:34:40;;;;;;;29.83;20.50;;;;;;;19.11;73.06;99047.03;5080739;28;20561;-69
2022/11/19 09:37:07;;;;;;;22.63;18.27;;;;;;;19.20;72.71;99043.53;5080577;28;20210;-68
2022/11/19 09:39:36;;;;;;;63.90;21.87;;;;;;;19.11;72.79;99039.72;5075359;28;20196;-67
2022/11/19 09:42:14;;;;;;;27.87;17.50;;;;;;;19.30;76.02;99029.34;5080644;28;20187;-71
2022/11/19 09:45:02;;;;;;;26.23;20.07;;;;;;;19.43;72.19;99036.94;5082401;28;20200;-69
2022/11/19 09:47:44;;;;;;;19.10;16.23;;;;;;;19.50;71.14;99030.25;5076326;28;21030;-67
2022/11/19 09:50:16;;;;;;;19.03;16.23;;;;;;;19.58;71.73;99020.84;5080230;28;20181;-69
2022/11/19 09:52:47;;;;;;;26.43;17.37;;;;;;;19.63;72.04;99016.28;5081800;28;20180;-67
2022/11/19 09:55:19;;;;;;;18.53;16.03;;;;;;;19.54;71.16;99025.13;5080938;28;20184;-68
2022/11/19 09:57:50;;;;;;;24.00;17.23;;;;;;;19.74;71.76;99017.09;5080383;28;20183;-68
2022/11/19 10:00:19;;;;;;;24.73;17.70;;;;;;;20.05;70.81;99016.09;5081947;28;20591;-70
2022/11/19 10:02:45;;;;;;;23.83;17.63;;;;;;;20.31;70.78;99009.63;5080313;28;20253;-70
2022/11/19 10:05:15;;;;;;;19.63;15.73;;;;;;;20.10;68.80;98994.53;5088628;28;20253;-68
2022/11/19 10:07:50;;;;;;;20.43;15.57;;;;;;;20.18;70.41;98983.22;5089751;28;20263;-68
2022/11/19 10:10:33;;;;;;;24.03;15.87;;;;;;;20.48;69.01;98999.38;5091826;28;20232;-68
2022/11/19 10:13:30;;;;;;;18.90;16.90;;;;;;;20.55;67.08;99005.31;5085909;28;20696;-68
2022/11/19 10:16:14;;;;;;;21.30;17.27;;;;;;;20.53;67.98;99007.44;5071270;28;20333;-68
2022/11/19 10:18:48;;;;;;;25.10;17.40;;;;;;;20.39;67.60;99009.09;5073871;28;20220;-69
2022/11/19 10:21:22;;;;;;;24.23;18.13;;;;;;;20.43;68.61;99008.25;5070930;28;20252;-69
2022/11/19 10:23:53;;;;;;;23.33;16.80;;;;;;;20.43;68.65;98996.69;5089586;28;20207;-70
2022/11/19 10:26:31;;;;;;;24.57;19.07;;;;;;;20.24;68.18;98991.03;5091972;28;20249;-67
2022/11/19 10:28:58;;;;;;;26.37;20.03;;;;;;;20.01;68.84;98994.22;5091836;28;20187;-69
2022/11/19 10:31:32;;;;;;;22.97;18.63;;;;;;;19.85;71.13;98997.97;5091438;28;20691;-70
2022/11/19 10:34:06;;;;;;;25.47;18.90;;;;;;;19.97;71.34;98986.94;5091667;28;20193;-69
2022/11/19 10:36:40;;;;;;;27.97;20.20;;;;;;;20.04;71.21;98992.88;5091405;28;20229;-69
2022/11/19 10:39:15;;;;;;;24.10;18.20;;;;;;;20.02;71.38;98995.03;5090840;28;20190;-69
2022/11/19 10:41:49;;;;;;;26.03;19.17;;;;;;;20.21;70.07;98999.66;5091737;28;20191;-69
2022/11/19 10:44:39;;;;;;;30.57;18.73;;;;;;;20.31;69.16;98988.06;5091612;28;20653;-74
2022/11/19 10:47:09;;;;;;;26.40;19.67;;;;;;;20.30;68.96;98978.34;5074376;28;20188;-73
2022/11/19 10:49:40;;;;;;;29.40;20.33;;;;;;;20.40;69.21;98986.44;5074029;28;20188;-72
2022/11/19 10:52:14;;;;;;;24.13;18.63;;;;;;;20.37;68.89;98989.66;5081890;28;20775;-72
2022/11/19 10:54:41;;;;;;;23.70;17.03;;;;;;;20.46;69.88;98986.16;5095636;28;20678;-71
2022/11/19 10:57:16;;;;;;;19.73;14.50;;;;;;;20.49;69.88;98976.69;5095369;28;20264;-76
2022/11/19 10:59:44;;;;;;;20.23;15.20;;;;;;;20.54;69.09;98990.16;5094989;28;20179;-73
2022/11/19 11:02:21;;;;;;;14.70;13.10;;;;;;;20.47;68.05;98986.97;5082748;28;20207;-73
2022/11/19 11:05:04;;;;;;;18.77;13.27;;;;;;;20.41;67.40;98982.63;5074046;28;20644;-73
2022/11/19 11:07:56;;;;;;;14.27;12.37;;;;;;;20.34;67.52;98979.44;5074524;28;20248;-75
2022/11/19 11:10:34;;;;;;;20.23;12.47;;;;;;;20.24;68.12;98972.16;5054551;28;20196;-73
2022/11/19 11:16:05;;;;;;;16.60;11.97;;;;;;;20.09;68.82;98966.75;5095489;28;20260;-73
2022/11/19 11:18:32;;;;;;;16.03;12.43;;;;;;;20.04;70.24;98960.50;5094735;28;20280;-73
2022/11/19 11:21:00;;;;;;;15.67;11.53;;;;;;;20.00;69.50;98954.03;5095388;28;20252;-73
2022/11/19 11:23:29;;;;;;;12.00;10.80;;;;;;;20.14;69.84;98955.97;5094287;28;20346;-70
2022/11/19 11:26:04;;;;;;;13.47;10.50;;;;;;;20.09;68.25;98966.75;5085986;28;20226;-74
2022/11/19 11:28:33;;;;;;;12.37;11.13;;;;;;;20.01;68.93;98969.16;5083485;28;20252;-73
2022/11/19 11:31:01;;;;;;;17.90;11.63;;;;;;;19.98;68.65;98969.69;5082735;28;20187;-74
2022/11/19 11:33:32;;;;;;;14.37;11.17;;;;;;;19.97;70.81;98960.78;5074139;28;20247;-72
2022/11/19 11:36:02;;;;;;;12.10;10.77;;;;;;;20.14;69.56;98957.88;5076335;28;20191;-78
2022/11/19 11:38:30;;;;;;;11.27;10.07;;;;;;;19.98;67.86;98948.91;5090304;28;20635;-79
2022/11/19 11:41:03;;;;;;;12.50;10.17;;;;;;;20.09;67.97;98969.44;5093489;28;20201;-78